Time;durP1;ratioP1;P1;durP2;ratioP2;P2;SDS_P1;SDS_P2;PMS_P1;PMS_P2;Temp;Humidity;BMP_temperature;BMP_pressure;BME280_temperature;BME280_humidity;BME280_pressure;Samples;Min_cycle;Max_cycle;Signal;HPM_P1;HPM_P2
2023/07/01 00:00:06;;;;;;;12.90;6.25;;;18.80;99.90;;;19.31;85.85;100555.19;5055380;28;20052;-76
2023/07/01 00:02:36;;;;;;;8.73;6.18;;;18.90;99.90;;;19.43;85.65;100548.41;5055729;28;20163;-76
2023/07/01 00:05:06;;;;;;;10.25;6.10;;;19.00;99.90;;;19.49;85.42;100548.13;5055354;28;20057;-77
2023/07/01 00:07:35;;;;;;;9.15;6.45;;;19.00;99.90;;;19.47;85.45;100532.09;5055296;28;20127;-76
2023/07/01 00:10:05;;;;;;;11.55;6.82;;;19.00;99.90;;;19.56;85.34;100547.78;5070787;28;20440;-77
2023/07/01 00:12:33;;;;;;;12.40;6.60;;;19.10;99.90;;;19.55;85.31;100534.44;5051535;28;20045;-75
2023/07/01 00:15:02;;;;;;;9.27;6.45;;;19.10;99.90;;;19.42;85.86;100547.53;5054132;28;20048;-76
2023/07/01 00:17:31;;;;;;;13.45;7.38;;;19.00;99.90;;;19.31;86.68;100536.41;5055405;28;20049;-76
2023/07/01 00:20:00;;;;;;;9.57;6.50;;;19.00;99.90;;;19.31;87.41;100532.84;5055101;28;20133;-75
2023/07/01 00:22:28;;;;;;;13.02;7.15;;;18.90;99.90;;;19.34;87.61;100528.22;5055258;28;20287;-76
2023/07/01 00:24:57;;;;;;;12.13;7.35;;;18.90;99.90;;;19.19;88.28;100515.50;5054869;28;20102;-74
2023/07/01 00:27:25;;;;;;;10.20;7.15;;;18.80;99.90;;;19.14;89.04;100514.84;5054933;28;20143;-76
2023/07/01 00:29:53;;;;;;;15.10;8.43;;;18.70;99.90;;;18.69;89.71;100431.13;5053338;28;20045;-76
2023/07/01 00:32:22;;;;;;;16.98;8.20;;;18.70;99.90;;;19.09;90.30;100494.50;5054973;28;20411;-76
2023/07/01 00:34:52;;;;;;;12.98;7.53;;;18.70;99.90;;;18.94;91.28;100498.75;5053585;28;20117;-75
2023/07/01 00:37:20;;;;;;;12.10;7.40;;;18.50;99.90;;;18.88;91.65;100485.63;5051271;28;20079;-75
2023/07/01 00:39:49;;;;;;;10.70;7.10;;;18.50;99.90;;;18.95;91.72;100499.66;5054985;28;20189;-75
2023/07/01 00:42:18;;;;;;;13.13;8.18;;;18.50;99.90;;;18.97;91.26;100495.94;5054774;28;20052;-74
2023/07/01 00:44:46;;;;;;;14.13;8.38;;;18.50;99.90;;;19.00;91.27;100487.78;5054543;28;20080;-76
2023/07/01 00:47:15;;;;;;;12.15;7.10;;;18.60;99.90;;;18.85;91.30;100489.31;5054762;28;20075;-75
2023/07/01 00:49:43;;;;;;;13.40;7.80;;;18.60;99.90;;;18.89;91.90;100482.88;5054726;28;20033;-75
2023/07/01 00:52:13;;;;;;;16.73;8.18;;;18.50;99.90;;;18.72;92.80;100472.03;5052601;28;20406;-76
2023/07/01 00:54:43;;;;;;;15.80;8.80;;;18.30;99.90;;;18.73;93.49;100479.16;5054802;28;20067;-76
2023/07/01 00:57:11;;;;;;;14.50;8.50;;;18.30;99.90;;;18.54;94.35;100485.38;5055004;28;20049;-76
2023/07/01 00:59:39;;;;;;;13.52;8.80;;;18.20;99.90;;;18.50;94.89;100473.06;5050765;28;20448;-75
2023/07/01 01:02:19;;;;;;;14.30;8.63;;;18.10;99.90;;;18.40;95.51;100467.19;5068701;28;20052;-76
2023/07/01 01:05:02;;;;;;;12.35;9.02;;;18.10;99.90;;;18.43;96.21;100459.03;5054459;28;20080;-76
2023/07/01 01:07:39;;;;;;;14.60;9.50;;;18.00;99.90;;;18.50;96.42;100468.56;5049885;28;20052;-75
2023/07/01 01:10:12;;;;;;;15.32;9.60;;;18.10;99.90;;;18.49;96.64;100461.47;5054414;28;20116;-75
2023/07/01 01:12:44;;;;;;;15.25;9.85;;;18.10;99.90;;;18.50;96.89;100439.09;5054024;28;20394;-74
2023/07/01 01:15:13;;;;;;;13.85;9.07;;;18.10;99.90;;;18.58;96.63;100439.63;5065823;28;20041;-73
2023/07/01 01:17:43;;;;;;;16.10;9.95;;;18.20;99.90;;;18.61;96.83;100454.69;5052905;28;20063;-75
2023/07/01 01:20:16;;;;;;;13.40;9.50;;;18.20;99.90;;;18.62;97.15;100459.13;5050900;28;20449;-75
2023/07/01 01:22:50;;;;;;;12.25;8.32;;;18.20;99.90;;;18.51;97.61;100437.28;5054149;28;20083;-75
2023/07/01 01:25:29;;;;;;;12.32;8.18;;;18.10;99.90;;;18.53;97.54;100424.69;5052777;28;20080;-75
2023/07/01 01:28:00;;;;;;;10.82;9.35;;;18.20;99.90;;;18.59;97.24;100425.31;5066772;28;20052;-75
2023/07/01 01:30:32;;;;;;;16.40;9.35;;;18.20;99.90;;;18.54;97.35;100416.56;5052851;28;20107;-75
2023/07/01 01:33:01;;;;;;;14.13;10.30;;;18.20;99.90;;;18.63;97.40;100409.94;5053982;28;20052;-75
2023/07/01 01:35:30;;;;;;;15.60;11.13;;;18.20;99.90;;;18.37;97.95;100375.41;5052666;28;20053;-75
2023/07/01 01:38:05;;;;;;;16.83;10.30;;;18.20;99.90;;;18.56;98.08;100403.13;5053762;28;20060;-76
2023/07/01 01:40:40;;;;;;;17.67;10.65;;;18.20;99.90;;;18.57;98.24;100408.41;5041401;28;20041;-75
2023/07/01 01:43:18;;;;;;;15.00;10.43;;;18.20;99.90;;;18.53;99.03;100396.09;5053943;28;20510;-75
2023/07/01 01:45:48;;;;;;;13.77;9.98;;;18.20;99.90;;;18.60;99.46;100404.75;5053840;28;20079;-76
2023/07/01 01:48:17;;;;;;;12.35;10.20;;;18.20;99.90;;;18.57;99.99;100405.75;5049091;28;20072;-76
2023/07/01 01:50:50;;;;;;;14.60;10.10;;;18.20;99.90;;;18.32;100.00;100361.31;5053868;28;20467;-75
2023/07/01 01:53:19;;;;;;;11.68;10.48;;;18.10;99.90;;;18.51;100.00;100389.06;5053759;28;20091;-76
2023/07/01 01:55:48;;;;;;;13.30;10.48;;;18.10;99.90;;;18.60;100.00;100394.88;5053647;28;20459;-75
2023/07/01 01:58:18;;;;;;;13.85;11.57;;;18.20;99.90;;;18.55;100.00;100382.63;5052033;28;20049;-76
2023/07/01 02:00:47;;;;;;;13.00;11.80;;;18.20;99.90;;;18.55;100.00;100380.81;5049456;28;20056;-75
2023/07/01 02:03:17;;;;;;;16.17;11.88;;;18.20;99.90;;;18.62;100.00;100384.13;5048699;28;20394;-75
2023/07/01 02:05:46;;;;;;;16.25;11.73;;;18.20;99.90;;;18.61;100.00;100375.19;5053467;28;20048;-75
2023/07/01 02:08:14;;;;;;;15.30;11.85;;;18.20;99.90;;;18.58;100.00;100380.69;5049709;28;20498;-76
2023/07/01 02:10:43;;;;;;;12.38;11.18;;;18.20;99.90;;;18.59;100.00;100378.88;5051929;28;20044;-76
2023/07/01 02:13:12;;;;;;;15.18;11.13;;;18.20;99.90;;;18.59;100.00;100382.44;5051727;28;20140;-75
2023/07/01 02:15:42;;;;;;;11.05;9.90;;;18.20;99.90;;;18.62;100.00;100371.56;5050725;28;20056;-76
2023/07/01 02:18:10;;;;;;;17.53;10.10;;;18.20;99.90;;;18.59;100.00;100370.84;5053233;28;20497;-75
2023/07/01 02:20:38;;;;;;;13.52;9.95;;;18.20;99.90;;;18.58;100.00;100348.53;5053199;28;20283;-76
2023/07/01 02:23:07;;;;;;;13.32;10.98;;;18.20;99.90;;;18.58;100.00;100369.13;5053127;28;20041;-75
2023/07/01 02:25:35;;;;;;;14.77;9.57;;;18.20;99.90;;;18.57;100.00;100368.25;5053544;28;20047;-76
2023/07/01 02:28:04;;;;;;;14.65;10.27;;;18.20;99.90;;;18.52;100.00;100370.25;5049863;28;20049;-75
2023/07/01 02:30:34;;;;;;;13.18;9.90;;;18.10;99.90;;;18.61;100.00;100361.81;5053508;28;20120;-75
2023/07/01 02:33:04;;;;;;;11.27;10.00;;;18.20;99.90;;;18.73;100.00;100363.06;5050012;28;20049;-75
2023/07/01 02:35:32;;;;;;;16.50;9.30;;;18.30;99.90;;;18.72;100.00;100338.06;5052166;28;20740;-74
2023/07/01 02:38:01;;;;;;;10.63;9.57;;;18.30;99.90;;;18.72;100.00;100363.97;5053396;28;20123;-76
2023/07/01 02:40:29;;;;;;;15.15;9.60;;;18.30;99.90;;;18.66;100.00;100349.06;5053035;28;20487;-75
2023/07/01 02:42:57;;;;;;;11.85;10.40;;;18.30;99.90;;;18.61;100.00;100359.13;5053332;28;20100;-75
2023/07/01 02:45:27;;;;;;;17.13;10.40;;;18.20;99.90;;;18.61;100.00;100348.41;5051930;28;20118;-75
2023/07/01 02:47:55;;;;;;;18.05;10.98;;;18.20;99.90;;;18.50;100.00;100350.72;5053189;28;20086;-75
2023/07/01 02:50:25;;;;;;;14.45;11.10;;;18.10;99.90;;;18.63;100.00;100361.72;5048074;28;20051;-76
2023/07/01 02:52:53;;;;;;;12.00;9.60;;;18.20;99.90;;;18.61;100.00;100336.81;5051554;28;20056;-75
2023/07/01 02:55:22;;;;;;;12.82;10.73;;;18.20;99.90;;;18.61;100.00;100347.53;5049475;28;20045;-75
2023/07/01 02:57:50;;;;;;;13.65;10.73;;;18.20;99.90;;;18.69;100.00;100335.53;5053081;28;20037;-75
2023/07/01 03:00:19;;;;;;;16.48;11.00;;;18.20;99.90;;;18.72;100.00;100335.38;5053042;28;20053;-75
2023/07/01 03:02:47;;;;;;;12.10;10.88;;;18.20;99.90;;;18.74;100.00;100336.19;5053190;28;20060;-75
2023/07/01 03:05:19;;;;;;;12.70;10.52;;;18.30;99.90;;;18.74;100.00;100333.50;5052678;28;20045;-75
2023/07/01 03:07:48;;;;;;;12.55;10.80;;;18.30;99.90;;;18.74;100.00;100328.13;5053079;28;20041;-75
2023/07/01 03:10:17;;;;;;;12.65;11.23;;;18.30;99.90;;;18.69;100.00;100323.94;5067991;28;20504;-75
2023/07/01 03:12:45;;;;;;;14.88;11.05;;;18.30;99.90;;;18.70;100.00;100318.50;5047687;28;20131;-74
2023/07/01 03:15:14;;;;;;;13.70;12.30;;;18.30;99.90;;;18.75;100.00;100318.31;5051422;28;20048;-75
2023/07/01 03:17:42;;;;;;;12.93;11.63;;;18.30;99.90;;;18.73;100.00;100315.69;5052807;28;20433;-75
2023/07/01 03:20:22;;;;;;;11.27;10.18;;;18.30;99.90;;;18.77;100.00;100311.94;5052556;28;20060;-74
2023/07/01 03:22:56;;;;;;;11.57;10.57;;;18.30;99.90;;;18.86;100.00;100311.50;5068269;28;20045;-75
2023/07/01 03:25:25;;;;;;;11.52;10.43;;;18.40;99.90;;;18.85;100.00;100303.53;5039559;28;20064;-75
2023/07/01 03:27:54;;;;;;;11.70;10.70;;;18.40;99.90;;;18.79;100.00;100301.97;5052684;28;20120;-75
2023/07/01 03:30:29;;;;;;;11.43;10.32;;;18.40;99.90;;;18.75;100.00;100303.09;5051394;28;20045;-75
2023/07/01 03:32:58;;;;;;;12.23;10.48;;;18.30;99.90;;;18.63;100.00;100276.88;5050968;28;20053;-75
2023/07/01 03:35:27;;;;;;;13.82;12.52;;;18.30;99.90;;;18.60;100.00;100273.47;5052288;28;20045;-74
2023/07/01 03:37:57;;;;;;;12.25;11.18;;;18.30;99.90;;;18.76;100.00;100296.78;5059994;28;20141;-75
2023/07/01 03:40:25;;;;;;;12.30;11.18;;;18.30;99.90;;;18.64;100.00;100297.34;5052277;28;20057;-74
2023/07/01 03:42:53;;;;;;;12.13;10.70;;;18.20;99.90;;;18.72;100.00;100280.91;5052324;28;20075;-75
2023/07/01 03:45:22;;;;;;;11.13;10.10;;;18.20;99.90;;;18.73;100.00;100288.03;5052488;28;20053;-75
2023/07/01 03:47:50;;;;;;;11.43;10.07;;;18.30;99.90;;;18.73;100.00;100279.97;5052224;28;20509;-75
2023/07/01 03:50:18;;;;;;;11.50;10.25;;;18.30;99.90;;;18.76;100.00;100278.03;5052179;28;20110;-74
2023/07/01 03:52:47;;;;;;;10.85;9.95;;;18.30;99.90;;;18.78;100.00;100268.09;5052481;28;20072;-75
2023/07/01 03:55:18;;;;;;;10.38;9.40;;;18.30;99.90;;;18.80;100.00;100271.59;5052110;28;20082;-75
2023/07/01 03:57:46;;;;;;;10.10;9.10;;;18.40;99.90;;;18.75;100.00;100284.34;5052737;28;20041;-75
2023/07/01 04:00:18;;;;;;;11.05;10.05;;;18.30;99.90;;;18.68;100.00;100249.84;5052101;28;20037;-74
2023/07/01 04:02:47;;;;;;;9.95;9.05;;;18.30;99.90;;;18.72;100.00;100271.06;5048449;28;20057;-75
2023/07/01 04:05:17;;;;;;;10.60;9.07;;;18.30;99.90;;;18.81;100.00;100259.91;5052093;28;20044;-74
2023/07/01 04:07:49;;;;;;;8.63;7.93;;;18.30;99.90;;;18.65;100.00;100248.19;5052111;28;20056;-75
2023/07/01 04:10:18;;;;;;;8.95;8.10;;;18.30;99.90;;;18.73;100.00;100267.47;5052087;28;20100;-75
2023/07/01 04:12:47;;;;;;;10.03;8.77;;;18.30;99.90;;;18.79;100.00;100253.75;5052366;28;20397;-74
2023/07/01 04:15:15;;;;;;;10.18;9.23;;;18.30;99.90;;;18.86;100.00;100259.69;5051953;28;20827;-74
2023/07/01 04:17:47;;;;;;;9.82;8.93;;;18.40;99.90;;;18.90;100.00;100254.13;5050980;28;20049;-74
2023/07/01 04:20:15;;;;;;;9.43;8.60;;;18.40;99.90;;;18.83;100.00;100249.97;5048566;28;20048;-73
2023/07/01 04:22:44;;;;;;;9.02;8.32;;;18.40;99.90;;;18.81;100.00;100249.19;5052152;28;20460;-75
2023/07/01 04:25:12;;;;;;;9.10;8.30;;;18.40;99.90;;;18.79;100.00;100248.38;5051901;28;20500;-73
2023/07/01 04:27:43;;;;;;;9.63;8.75;;;18.40;99.90;;;18.81;100.00;100262.59;5051923;28;20083;-74
2023/07/01 04:30:13;;;;;;;10.38;8.32;;;18.30;99.90;;;18.79;100.00;100245.72;5052172;28;20128;-74
2023/07/01 04:32:42;;;;;;;8.75;8.02;;;18.40;99.90;;;18.84;100.00;100250.84;5051886;28;20122;-74
2023/07/01 04:35:11;;;;;;;9.00;8.10;;;18.40;99.90;;;18.79;100.00;100250.22;5052040;28;20055;-74
2023/07/01 04:37:39;;;;;;;9.70;8.32;;;18.30;99.90;;;18.84;100.00;100246.38;5054073;28;20136;-75
2023/07/01 04:40:09;;;;;;;9.00;8.20;;;18.40;99.90;;;18.88;100.00;100245.28;5051397;28;20084;-74
2023/07/01 04:42:48;;;;;;;8.93;7.88;;;18.40;99.90;;;18.83;100.00;100236.59;5052116;28;20382;-75
2023/07/01 04:45:19;;;;;;;9.10;8.20;;;18.40;99.90;;;18.83;100.00;100230.38;5055557;28;20128;-74
2023/07/01 04:47:48;;;;;;;9.15;8.25;;;18.40;99.90;;;18.87;100.00;100243.53;5055288;28;20637;-75
2023/07/01 04:50:17;;;;;;;9.45;8.55;;;18.40;99.90;;;18.91;100.00;100234.41;5055144;28;20045;-73
2023/07/01 04:52:45;;;;;;;8.55;7.80;;;18.50;99.90;;;18.87;100.00;100231.97;5055182;28;20490;-74
2023/07/01 04:55:15;;;;;;;9.10;8.13;;;18.40;99.90;;;18.90;100.00;100235.38;5051467;28;20045;-75
2023/07/01 04:57:43;;;;;;;8.38;7.65;;;18.50;99.90;;;18.89;100.00;100238.97;5055028;28;20053;-74
2023/07/01 05:00:15;;;;;;;10.38;8.65;;;18.40;99.90;;;18.90;100.00;100227.31;5055539;28;20119;-75
2023/07/01 05:02:43;;;;;;;8.55;7.82;;;18.50;99.90;;;18.92;100.00;100230.78;5054893;28;20061;-74
2023/07/01 05:05:11;;;;;;;8.68;7.88;;;18.50;99.90;;;18.92;100.00;100233.47;5054812;28;20044;-75
2023/07/01 05:07:40;;;;;;;10.50;8.15;;;18.50;99.90;;;18.95;100.00;100226.22;5054817;28;20141;-75
2023/07/01 05:10:09;;;;;;;9.52;8.68;;;18.40;99.90;;;18.89;100.00;100232.75;5054863;28;20058;-75
2023/07/01 05:12:38;;;;;;;9.75;8.05;;;18.40;99.90;;;18.90;100.00;100231.81;5054770;28;20084;-74
2023/07/01 05:15:07;;;;;;;9.30;8.50;;;18.50;99.90;;;18.96;100.00;100226.16;5050740;28;20041;-73
2023/07/01 05:17:37;;;;;;;9.35;8.65;;;18.50;99.90;;;18.89;100.00;100217.53;5055221;28;20083;-75
2023/07/01 05:20:06;;;;;;;10.77;9.60;;;18.50;99.90;;;18.95;100.00;100226.22;5051340;28;20057;-75
2023/07/01 05:22:36;;;;;;;10.60;9.80;;;18.50;99.90;;;18.91;100.00;100221.00;5054618;28;20449;-75
2023/07/01 05:25:05;;;;;;;10.80;9.65;;;18.50;99.90;;;18.99;100.00;100225.97;5054802;28;20457;-74
2023/07/01 05:27:34;;;;;;;10.90;9.80;;;18.50;99.90;;;18.98;100.00;100221.59;5054413;28;20056;-75
2023/07/01 05:30:02;;;;;;;11.25;10.27;;;18.50;99.90;;;19.06;100.00;100226.56;5054681;28;20053;-75
2023/07/01 05:32:30;;;;;;;11.27;10.15;;;18.60;99.90;;;19.07;100.00;100228.28;5054318;28;20045;-74
2023/07/01 05:35:01;;;;;;;10.43;9.52;;;18.60;99.90;;;19.05;100.00;100224.84;5053312;28;20406;-75
2023/07/01 05:37:29;;;;;;;11.27;10.35;;;18.60;99.90;;;19.08;100.00;100222.00;5066611;28;20460;-74
2023/07/01 05:39:57;;;;;;;11.27;10.25;;;18.60;99.90;;;19.09;100.00;100227.28;5054239;28;20457;-74
2023/07/01 05:42:26;;;;;;;12.55;11.43;;;18.60;99.90;;;19.16;100.00;100217.13;5054140;28;20045;-74
2023/07/01 05:44:54;;;;;;;12.63;11.05;;;18.70;99.90;;;19.14;100.00;100227.94;5054687;28;20044;-75
2023/07/01 05:47:22;;;;;;;11.27;10.20;;;18.70;99.90;;;19.19;100.00;100212.47;5053905;28;20049;-75
2023/07/01 05:49:51;;;;;;;12.95;10.20;;;18.70;99.90;;;19.20;100.00;100213.34;5054034;28;20067;-75
2023/07/01 05:52:21;;;;;;;11.00;10.00;;;18.70;99.90;;;19.19;100.00;100222.31;5054002;28;20036;-74
2023/07/01 05:54:49;;;;;;;11.18;10.10;;;18.80;99.90;;;19.10;100.00;100218.31;5054001;28;20044;-74
2023/07/01 05:57:18;;;;;;;11.57;10.55;;;18.70;99.90;;;19.11;100.00;100209.31;5053854;28;20494;-74
2023/07/01 05:59:46;;;;;;;11.48;10.48;;;18.70;99.90;;;19.15;100.00;100207.34;5049971;28;20037;-75
2023/07/01 06:02:15;;;;;;;11.63;10.55;;;18.70;99.90;;;19.14;100.00;100225.25;5049004;28;20448;-74
2023/07/01 06:04:43;;;;;;;12.68;11.52;;;18.70;99.90;;;19.13;100.00;100215.47;5054000;28;20091;-74
2023/07/01 06:07:11;;;;;;;11.13;10.13;;;18.70;99.90;;;19.15;100.00;100215.38;5054172;28;20072;-74
2023/07/01 06:09:48;;;;;;;11.13;10.13;;;18.70;99.90;;;19.18;100.00;100212.56;5053666;28;20056;-74
2023/07/01 06:12:16;;;;;;;10.82;9.80;;;18.70;99.90;;;19.23;100.00;100213.19;5053665;28;20095;-75
2023/07/01 06:14:45;;;;;;;11.02;9.90;;;18.70;99.90;;;19.25;100.00;100211.28;5052549;28;20052;-76
2023/07/01 06:17:13;;;;;;;11.23;10.23;;;18.70;99.90;;;19.29;100.00;100212.88;5053546;28;20405;-75
2023/07/01 06:19:41;;;;;;;11.73;10.38;;;18.80;99.90;;;19.34;100.00;100218.91;5049614;28;20068;-75
2023/07/01 06:22:10;;;;;;;9.73;8.93;;;18.90;99.90;;;19.29;100.00;100220.94;5053970;28;20052;-75
2023/07/01 06:24:38;;;;;;;10.32;9.32;;;18.90;99.90;;;19.31;100.00;100216.34;5053986;28;20049;-74
2023/07/01 06:27:08;;;;;;;10.00;9.20;;;18.90;99.90;;;19.28;100.00;100211.16;5052192;28;20379;-75
2023/07/01 06:29:36;;;;;;;10.33;9.43;;;18.80;99.90;;;19.33;100.00;100218.06;5053565;28;20044;-74
2023/07/01 06:32:06;;;;;;;9.65;8.75;;;18.90;99.90;;;19.42;100.00;100222.94;5053199;28;20119;-73
2023/07/01 06:34:34;;;;;;;8.82;8.13;;;18.90;99.90;;;19.43;100.00;100216.66;5053161;28;20048;-74
2023/07/01 06:37:02;;;;;;;8.50;7.70;;;18.90;99.90;;;19.48;100.00;100208.34;5053292;28;20049;-76
2023/07/01 06:39:32;;;;;;;9.10;8.20;;;19.00;99.90;;;19.44;100.00;100217.50;5053112;28;20049;-74
2023/07/01 06:42:00;;;;;;;9.00;8.15;;;19.00;99.90;;;19.43;100.00;100211.28;5053328;28;20557;-75
2023/07/01 06:44:30;;;;;;;8.18;7.38;;;19.00;99.90;;;19.40;100.00;100211.41;5049497;28;20049;-74
2023/07/01 06:46:58;;;;;;;8.30;7.60;;;19.00;99.90;;;19.50;100.00;100217.19;5053297;28;20064;-74
2023/07/01 06:49:26;;;;;;;7.65;6.90;;;19.00;99.90;;;19.44;100.00;100214.81;5052851;28;20052;-75
2023/07/01 06:51:54;;;;;;;8.10;7.40;;;19.00;99.90;;;19.51;100.00;100226.97;5052853;28;20045;-75
2023/07/01 06:54:23;;;;;;;7.78;7.05;;;19.00;99.90;;;19.51;100.00;100214.41;5052835;28;20463;-75
2023/07/01 06:56:51;;;;;;;7.05;6.45;;;19.10;99.90;;;19.56;100.00;100214.19;5052673;28;20049;-72
2023/07/01 06:59:20;;;;;;;6.15;5.55;;;19.10;99.90;;;19.58;100.00;100201.56;5050223;28;20049;-76
2023/07/01 07:01:49;;;;;;;5.97;5.40;;;19.10;99.90;;;19.45;100.00;100203.16;5052838;28;20466;-75
2023/07/01 07:04:18;;;;;;;5.85;5.30;;;19.10;99.90;;;19.53;100.00;100200.94;5052488;28;20512;-74
2023/07/01 07:06:46;;;;;;;5.70;5.20;;;19.10;99.90;;;19.54;100.00;100202.66;5052925;28;20053;-75
2023/07/01 07:09:15;;;;;;;4.97;4.57;;;19.10;99.90;;;19.62;100.00;100206.69;5049176;28;20071;-76
2023/07/01 07:11:47;;;;;;;6.53;5.60;;;19.10;99.90;;;19.67;100.00;100209.13;5053017;28;20055;-75
2023/07/01 07:14:16;;;;;;;5.32;4.95;;;19.20;99.90;;;19.74;100.00;100207.88;5052891;28;20045;-75
2023/07/01 07:16:46;;;;;;;5.70;5.25;;;19.20;99.90;;;19.76;100.00;100203.31;5052491;28;20446;-74
2023/07/01 07:19:16;;;;;;;;;;;19.30;99.90;;;19.29;100.00;100105.59;5052964;28;20049;-75
2023/07/01 07:21:44;;;;;;;4.63;4.22;;;19.30;99.90;;;19.74;100.00;100205.19;5052744;28;20015;-72
2023/07/01 07:24:13;;;;;;;4.30;4.00;;;19.30;99.90;;;19.63;100.00;100181.59;5052429;28;20457;-74
2023/07/01 07:26:42;;;;;;;5.45;4.97;;;19.30;99.90;;;19.78;100.00;100201.41;5048510;28;20432;-75
2023/07/01 07:29:11;;;;;;;4.50;4.20;;;19.30;99.90;;;19.69;100.00;100204.53;5049061;28;20064;-74
2023/07/01 07:31:39;;;;;;;4.65;4.35;;;19.30;99.90;;;19.77;100.00;100205.00;5052331;28;20502;-74
2023/07/01 07:34:08;;;;;;;4.68;4.30;;;19.30;99.90;;;19.85;100.00;100200.13;5052429;28;20505;-75
2023/07/01 07:36:37;;;;;;;4.80;4.40;;;19.40;99.90;;;19.81;100.00;100206.59;5052251;28;20040;-75
2023/07/01 07:39:06;;;;;;;4.28;4.03;;;19.40;99.90;;;19.94;100.00;100207.66;5052462;28;20142;-75
2023/07/01 07:41:34;;;;;;;4.05;3.75;;;19.50;99.90;;;19.97;100.00;100206.66;5052307;28;20080;-75
2023/07/01 07:44:03;;;;;;;4.15;3.85;;;19.50;99.90;;;19.94;100.00;100202.31;5052289;28;20398;-73
2023/07/01 07:46:31;;;;;;;4.00;3.80;;;19.50;99.90;;;20.01;100.00;100202.84;5052244;28;20098;-79
2023/07/01 07:49:00;;;;;;;3.90;3.70;;;19.50;99.90;;;19.97;100.00;100199.47;5052210;28;20456;-74
2023/07/01 07:51:28;;;;;;;3.97;3.40;;;19.50;99.90;;;20.02;100.00;100202.75;5048310;28;20045;-74
2023/07/01 07:53:58;;;;;;;3.83;3.58;;;19.60;99.90;;;19.89;100.00;100182.91;5052743;28;20049;-73
2023/07/01 07:56:26;;;;;;;3.70;3.40;;;19.60;99.90;;;20.06;100.00;100200.78;5052508;28;20076;-73
2023/07/01 07:58:55;;;;;;;3.33;3.13;;;19.60;99.90;;;20.10;100.00;100205.03;5051092;28;20049;-79
2023/07/01 08:01:23;;;;;;;3.58;3.38;;;19.60;99.90;;;20.26;100.00;100211.34;5052068;28;20057;-83
2023/07/01 08:03:51;;;;;;;3.20;3.00;;;19.80;99.90;;;20.30;100.00;100203.06;5052152;28;20048;-77
2023/07/01 08:06:20;;;;;;;3.40;3.20;;;19.80;99.90;;;20.36;100.00;100202.69;5051995;28;20057;-76
2023/07/01 08:08:48;;;;;;;3.40;3.10;;;19.90;99.90;;;20.29;100.00;100200.44;5052368;28;20498;-75
2023/07/01 08:11:18;;;;;;;3.22;3.03;;;19.90;99.90;;;20.34;100.00;100204.59;5053965;28;20465;-77
2023/07/01 08:13:46;;;;;;;3.90;3.17;;;19.90;99.90;;;20.39;100.00;100202.53;5055747;28;20118;-79
2023/07/01 08:16:15;;;;;;;3.70;3.00;;;20.00;99.90;;;20.41;100.00;100203.31;5051760;28;20389;-81
2023/07/01 08:18:43;;;;;;;3.35;2.60;;;20.00;99.90;;;20.44;100.00;100203.13;5055667;28;20057;-74
2023/07/01 08:21:13;;;;;;;3.08;2.80;;;20.00;99.90;;;20.46;100.00;100203.09;5055699;28;20091;-74
2023/07/01 08:23:41;;;;;;;4.50;3.10;;;20.00;99.90;;;20.47;100.00;100203.00;5055548;28;20111;-74
2023/07/01 08:26:10;;;;;;;3.20;3.00;;;20.00;99.90;;;20.52;100.00;100206.28;5055549;28;20048;-75
2023/07/01 08:28:39;;;;;;;3.38;3.17;;;20.10;99.90;;;20.54;100.00;100201.69;5055737;28;20055;-74
2023/07/01 08:31:08;;;;;;;4.77;3.80;;;20.10;99.90;;;20.51;100.00;100206.38;5055481;28;20041;-78
2023/07/01 08:33:37;;;;;;;4.50;4.18;;;20.10;99.90;;;20.49;100.00;100198.41;5055460;28;20037;-75
2023/07/01 08:36:06;;;;;;;4.50;3.72;;;20.10;99.90;;;20.56;100.00;100206.97;5055319;28;20140;-79
2023/07/01 08:38:34;;;;;;;5.50;4.15;;;20.10;99.90;;;20.53;100.00;100207.16;5051388;28;20059;-76
2023/07/01 08:41:05;;;;;;;5.85;4.15;;;20.10;99.90;;;20.60;100.00;100209.41;5055292;28;20044;-81
2023/07/01 08:43:35;;;;;;;7.38;4.38;;;20.10;99.90;;;20.28;100.00;100175.41;5055300;28;20075;-84
2023/07/01 08:46:09;;;;;;;4.95;4.55;;;20.10;99.90;;;20.45;100.00;100212.94;5055257;28;20041;-79
2023/07/01 08:48:39;;;;;;;6.65;4.57;;;20.00;99.90;;;20.53;100.00;100205.34;5055196;28;20554;-83
2023/07/01 08:51:16;;;;;;;5.40;4.85;;;20.10;99.90;;;20.46;100.00;100186.97;5055134;28;20048;-79
2023/07/01 08:53:45;;;;;;;6.50;4.82;;;20.10;99.90;;;20.44;100.00;100192.38;5055053;28;20037;-83
2023/07/01 08:56:14;;;;;;;5.97;5.13;;;20.10;99.90;;;20.56;100.00;100209.66;5054074;28;20048;-82
2023/07/01 08:58:45;;;;;;;8.88;5.82;;;20.20;99.90;;;20.58;100.00;100211.31;5055042;28;20041;-80
2023/07/01 09:01:15;;;;;;;9.82;6.22;;;20.10;99.90;;;20.59;100.00;100213.06;5054903;28;20057;-80
2023/07/01 09:03:47;;;;;;;7.65;6.63;;;20.10;99.90;;;20.55;100.00;100216.00;5055113;28;20421;-80
2023/07/01 09:06:16;;;;;;;8.82;7.05;;;20.10;99.90;;;20.57;100.00;100208.72;5049835;28;20053;-76
2023/07/01 09:08:44;;;;;;;10.95;7.70;;;20.10;99.90;;;20.56;100.00;100212.34;5053766;28;20049;-83
2023/07/01 09:11:15;;;;;;;10.35;8.05;;;20.10;99.90;;;20.59;100.00;100212.19;5054762;28;20049;-76
2023/07/01 09:13:44;;;;;;;11.18;8.40;;;20.10;99.90;;;20.65;100.00;100211.84;5054902;28;20048;-80
2023/07/01 09:16:30;;;;;;;12.50;8.55;;;20.20;99.90;;;20.64;100.00;100213.66;5052384;28;20115;-78
2023/07/01 09:19:07;;;;;;;12.00;8.52;;;20.20;99.90;;;20.69;100.00;100225.00;5051848;28;20119;-83
2023/07/01 09:21:37;;;;;;;14.50;9.57;;;20.30;99.90;;;20.57;100.00;100192.59;5054681;28;20166;-81
2023/07/01 09:24:08;;;;;;;12.90;9.02;;;20.40;99.90;;;20.79;100.00;100225.34;5054432;28;20041;-76
2023/07/01 09:26:37;;;;;;;14.38;9.38;;;20.30;99.90;;;20.73;100.00;100219.47;5054527;28;20506;-82
2023/07/01 09:29:10;;;;;;;15.57;9.55;;;20.30;99.90;;;20.68;100.00;100220.59;5050657;28;20052;-86
2023/07/01 09:31:48;;;;;;;14.60;9.60;;;20.30;99.90;;;20.65;100.00;100206.47;5054851;28;20049;-76
2023/07/01 09:34:18;;;;;;;12.90;8.63;;;20.40;99.90;;;20.83;100.00;100220.69;5054898;28;20048;-77
2023/07/01 09:36:46;;;;;;;12.73;8.73;;;20.40;99.90;;;20.93;100.00;100222.75;5053287;28;20052;-75
2023/07/01 09:39:15;;;;;;;12.68;8.65;;;20.50;99.90;;;20.91;100.00;100223.78;5054214;28;20279;-75
2023/07/01 09:41:43;;;;;;;15.63;8.70;;;20.50;99.90;;;20.97;100.00;100220.75;5050421;28;20098;-74
2023/07/01 09:44:18;;;;;;;11.40;8.48;;;20.50;99.90;;;20.83;100.00;100221.53;5054130;28;20045;-75
2023/07/01 09:46:50;;;;;;;12.95;7.55;;;20.50;99.90;;;20.88;100.00;100226.66;5054177;28;20052;-75
2023/07/01 09:49:19;;;;;;;15.07;8.00;;;20.50;99.90;;;20.84;100.00;100220.59;5054116;28;20528;-75
2023/07/01 09:51:50;;;;;;;10.75;7.60;;;20.40;99.90;;;20.72;100.00;100221.28;5053920;28;20453;-75
2023/07/01 09:54:26;;;;;;;10.75;7.40;;;20.30;99.90;;;20.66;100.00;100218.94;5054190;28;20053;-75
2023/07/01 09:56:57;;;;;;;13.00;7.28;;;20.30;99.90;;;20.56;100.00;100226.66;5051198;28;20072;-75
2023/07/01 09:59:26;;;;;;;12.40;7.35;;;20.30;99.90;;;20.62;100.00;100218.25;5052896;28;20053;-74
2023/07/01 10:01:58;;;;;;;14.55;8.23;;;20.20;99.90;;;20.45;100.00;100221.00;5053603;28;20095;-75
2023/07/01 10:04:28;;;;;;;14.63;8.20;;;20.10;99.90;;;20.46;100.00;100193.19;5053789;28;20049;-75
2023/07/01 10:06:58;;;;;;;12.25;8.63;;;20.20;99.90;;;20.61;100.00;100219.19;5048838;28;20041;-74
2023/07/01 10:09:27;;;;;;;13.38;8.18;;;20.20;99.90;;;20.62;100.00;100218.25;5053593;28;20052;-75
2023/07/01 10:11:59;;;;;;;12.85;8.40;;;20.20;99.90;;;20.55;100.00;100224.94;5053621;28;20079;-77